FCYSMB OPMF-VIBR
Flight info
| Callsign | FCYSMB |
|---|---|
| Flight time | 1h 17m |
| Altitude | 15500 |
| Route | ORIVU PANILA DALBO ATNUS BOMAB KNG |
| Aircraft | C414/L-SDFGIRY/S |
Departure
| Time | 2026-05-06 18:46 |
|---|---|
| Airport | Muzaffarabad Airport (OPMF) |
Arrival
| Time | 2026-05-06 20:03 |
|---|---|
| Airport | Kullu Manali Airport (VIBR) |
| Time | Latitude | Longitude | Altitude | Speed | Heading |
|---|---|---|---|---|---|
| 2026-05-06 18:42 | 34.34214 | 73.50486 | 2781 ft | 0 kts | 43° |
| 2026-05-06 18:44 | 34.34198 | 73.50503 | 2785 ft | 1 kts | 186° |
| 2026-05-06 18:44 | 34.34183 | 73.50502 | 2785 ft | 0 kts | 169° |
| 2026-05-06 18:45 | 34.34155 | 73.50525 | 2786 ft | 19 kts | 130° |
| 2026-05-06 18:45 | 34.33956 | 73.50792 | 2790 ft | 66 kts | 131° |
| 2026-05-06 18:45 | 34.33563 | 73.51318 | 2839 ft | 101 kts | 133° |
| 2026-05-06 18:45 | 34.33213 | 73.51728 | 2898 ft | 114 kts | 148° |
| 2026-05-06 18:46 | 34.32300 | 73.52458 | 3327 ft | 121 kts | 142° |
| 2026-05-06 18:46 | 34.31671 | 73.53130 | 3709 ft | 123 kts | 137° |
| 2026-05-06 18:46 | 34.30971 | 73.53743 | 4023 ft | 124 kts | 152° |
| 2026-05-06 18:46 | 34.30304 | 73.54356 | 4500 ft | 122 kts | 137° |
| 2026-05-06 18:47 | 34.29641 | 73.55074 | 4833 ft | 131 kts | 150° |
| 2026-05-06 18:47 | 34.28802 | 73.55448 | 5195 ft | 131 kts | 167° |
| 2026-05-06 18:47 | 34.27910 | 73.55795 | 5455 ft | 135 kts | 156° |
| 2026-05-06 18:47 | 34.27069 | 73.56333 | 5763 ft | 141 kts | 154° |
| 2026-05-06 18:48 | 34.26198 | 73.56785 | 6160 ft | 130 kts | 166° |
| 2026-05-06 18:48 | 34.25318 | 73.57180 | 6381 ft | 139 kts | 162° |
| 2026-05-06 18:48 | 34.24353 | 73.57405 | 6680 ft | 143 kts | 175° |
| 2026-05-06 18:48 | 34.23340 | 73.57581 | 6872 ft | 154 kts | 164° |
| 2026-05-06 18:49 | 34.22354 | 73.58114 | 7074 ft | 157 kts | 155° |
| 2026-05-06 18:49 | 34.21358 | 73.58703 | 7227 ft | 166 kts | 155° |
| 2026-05-06 18:49 | 34.20301 | 73.59358 | 7359 ft | 174 kts | 154° |
| 2026-05-06 18:49 | 34.19209 | 73.60037 | 7501 ft | 177 kts | 154° |
| 2026-05-06 18:50 | 34.18102 | 73.60691 | 7564 ft | 177 kts | 155° |
| 2026-05-06 18:50 | 34.17005 | 73.61373 | 7701 ft | 178 kts | 154° |
| 2026-05-06 18:50 | 34.15884 | 73.62021 | 7797 ft | 180 kts | 156° |
| 2026-05-06 18:50 | 34.14749 | 73.62682 | 7897 ft | 182 kts | 155° |
| 2026-05-06 18:51 | 34.13628 | 73.63367 | 8061 ft | 184 kts | 156° |
| 2026-05-06 18:51 | 34.12481 | 73.64057 | 8288 ft | 185 kts | 156° |
| 2026-05-06 18:51 | 34.11319 | 73.64753 | 8463 ft | 188 kts | 154° |
| 2026-05-06 18:51 | 34.10150 | 73.65500 | 8722 ft | 191 kts | 153° |
| 2026-05-06 18:52 | 34.08962 | 73.66221 | 8918 ft | 192 kts | 155° |
| 2026-05-06 18:52 | 34.07762 | 73.66951 | 9118 ft | 193 kts | 152° |
| 2026-05-06 18:52 | 34.06580 | 73.67723 | 9232 ft | 195 kts | 154° |
| 2026-05-06 18:52 | 34.05351 | 73.68421 | 9395 ft | 196 kts | 156° |
| 2026-05-06 18:53 | 34.04117 | 73.69131 | 9527 ft | 197 kts | 155° |
| 2026-05-06 18:53 | 34.02890 | 73.69878 | 9692 ft | 198 kts | 154° |
| 2026-05-06 18:53 | 34.01654 | 73.70629 | 9837 ft | 200 kts | 155° |
| 2026-05-06 18:53 | 34.00412 | 73.71389 | 9951 ft | 200 kts | 154° |
| 2026-05-06 18:54 | 33.99167 | 73.72149 | 10024 ft | 201 kts | 155° |
| 2026-05-06 18:54 | 33.97917 | 73.72905 | 10070 ft | 201 kts | 154° |
| 2026-05-06 18:54 | 33.96660 | 73.73653 | 10128 ft | 202 kts | 155° |
| 2026-05-06 18:54 | 33.95826 | 73.74148 | 10178 ft | 202 kts | 154° |
| 2026-05-06 18:55 | 33.94564 | 73.74895 | 10248 ft | 202 kts | 155° |
| 2026-05-06 18:55 | 33.93298 | 73.75639 | 10357 ft | 203 kts | 155° |
| 2026-05-06 18:55 | 33.92029 | 73.76376 | 10444 ft | 203 kts | 155° |
| 2026-05-06 18:55 | 33.90758 | 73.77123 | 10557 ft | 204 kts | 154° |
| 2026-05-06 18:56 | 33.89483 | 73.77876 | 10658 ft | 205 kts | 154° |
| 2026-05-06 18:56 | 33.88194 | 73.78623 | 10743 ft | 206 kts | 155° |
| 2026-05-06 18:56 | 33.86890 | 73.79356 | 10876 ft | 207 kts | 155° |
| 2026-05-06 18:56 | 33.85587 | 73.80097 | 10971 ft | 207 kts | 154° |
| 2026-05-06 18:57 | 33.84480 | 73.81165 | 11056 ft | 206 kts | 124° |
| 2026-05-06 18:57 | 33.83781 | 73.82660 | 11158 ft | 205 kts | 116° |
| 2026-05-06 18:57 | 33.83122 | 73.84182 | 11292 ft | 205 kts | 117° |
| 2026-05-06 18:57 | 33.82462 | 73.85702 | 11413 ft | 205 kts | 115° |
| 2026-05-06 18:58 | 33.81794 | 73.87222 | 11526 ft | 206 kts | 116° |
| 2026-05-06 18:58 | 33.81131 | 73.88743 | 11615 ft | 206 kts | 116° |
| 2026-05-06 18:58 | 33.80481 | 73.90250 | 11726 ft | 206 kts | 115° |
| 2026-05-06 18:58 | 33.79820 | 73.91776 | 11811 ft | 206 kts | 116° |
| 2026-05-06 18:59 | 33.79153 | 73.93299 | 11891 ft | 206 kts | 115° |
| 2026-05-06 18:59 | 33.78482 | 73.94825 | 12038 ft | 207 kts | 116° |
| 2026-05-06 18:59 | 33.77809 | 73.96353 | 12121 ft | 207 kts | 116° |
| 2026-05-06 18:59 | 33.77138 | 73.97880 | 12252 ft | 206 kts | 115° |
| 2026-05-06 19:00 | 33.76466 | 73.99405 | 12365 ft | 207 kts | 116° |
| 2026-05-06 19:00 | 33.75787 | 74.00929 | 12486 ft | 207 kts | 114° |
| 2026-05-06 19:00 | 33.75074 | 74.02441 | 12568 ft | 209 kts | 117° |
| 2026-05-06 19:00 | 33.74357 | 74.03961 | 12686 ft | 209 kts | 117° |
| 2026-05-06 19:01 | 33.73646 | 74.05482 | 12798 ft | 209 kts | 116° |
| 2026-05-06 19:01 | 33.72943 | 74.07006 | 12896 ft | 209 kts | 115° |
| 2026-05-06 19:01 | 33.72218 | 74.08521 | 13026 ft | 209 kts | 115° |
| 2026-05-06 19:01 | 33.71487 | 74.10035 | 13157 ft | 210 kts | 115° |
| 2026-05-06 19:02 | 33.70753 | 74.11551 | 13257 ft | 210 kts | 116° |
| 2026-05-06 19:02 | 33.70024 | 74.13070 | 13272 ft | 210 kts | 117° |
| 2026-05-06 19:02 | 33.69316 | 74.14599 | 13279 ft | 209 kts | 115° |
| 2026-05-06 19:02 | 33.68610 | 74.16125 | 13336 ft | 209 kts | 115° |
| 2026-05-06 19:03 | 33.67904 | 74.17652 | 13418 ft | 209 kts | 115° |
| 2026-05-06 19:03 | 33.67190 | 74.19177 | 13486 ft | 209 kts | 116° |
| 2026-05-06 19:03 | 33.66486 | 74.20700 | 13577 ft | 209 kts | 115° |
| 2026-05-06 19:03 | 33.65778 | 74.22221 | 13751 ft | 209 kts | 115° |
| 2026-05-06 19:04 | 33.65061 | 74.23741 | 13871 ft | 209 kts | 115° |
| 2026-05-06 19:04 | 33.64343 | 74.25259 | 13989 ft | 209 kts | 115° |
| 2026-05-06 19:04 | 33.63622 | 74.26779 | 14089 ft | 210 kts | 115° |
| 2026-05-06 19:04 | 33.62900 | 74.28299 | 14186 ft | 210 kts | 116° |
| 2026-05-06 19:05 | 33.62176 | 74.29824 | 14276 ft | 210 kts | 115° |
| 2026-05-06 19:05 | 33.61452 | 74.31351 | 14326 ft | 211 kts | 115° |
| 2026-05-06 19:05 | 33.60729 | 74.32881 | 14430 ft | 211 kts | 115° |
| 2026-05-06 19:05 | 33.60003 | 74.34409 | 14521 ft | 211 kts | 116° |
| 2026-05-06 19:06 | 33.59276 | 74.35942 | 14610 ft | 212 kts | 116° |
| 2026-05-06 19:06 | 33.58551 | 74.37482 | 14709 ft | 212 kts | 116° |
| 2026-05-06 19:06 | 33.57831 | 74.39033 | 14814 ft | 214 kts | 116° |
| 2026-05-06 19:06 | 33.57093 | 74.40581 | 14893 ft | 215 kts | 114° |
| 2026-05-06 19:07 | 33.56333 | 74.42127 | 15028 ft | 215 kts | 115° |
| 2026-05-06 19:07 | 33.55581 | 74.43683 | 15199 ft | 216 kts | 114° |
| 2026-05-06 19:07 | 33.54825 | 74.45240 | 15338 ft | 216 kts | 116° |
| 2026-05-06 19:07 | 33.54081 | 74.46804 | 15482 ft | 216 kts | 114° |
| 2026-05-06 19:08 | 33.53326 | 74.48364 | 15587 ft | 217 kts | 113° |
| 2026-05-06 19:08 | 33.52547 | 74.49919 | 15667 ft | 219 kts | 115° |
| 2026-05-06 19:08 | 33.51765 | 74.51474 | 15779 ft | 217 kts | 115° |
| 2026-05-06 19:08 | 33.51005 | 74.53038 | 15837 ft | 217 kts | 116° |
| 2026-05-06 19:09 | 33.50254 | 74.54606 | 15953 ft | 217 kts | 115° |
| 2026-05-06 19:09 | 33.49495 | 74.56169 | 16075 ft | 217 kts | 115° |
| 2026-05-06 19:09 | 33.48744 | 74.57746 | 16152 ft | 218 kts | 115° |
| 2026-05-06 19:09 | 33.47996 | 74.59330 | 16273 ft | 219 kts | 115° |
| 2026-05-06 19:10 | 33.47251 | 74.60921 | 16390 ft | 219 kts | 116° |
| 2026-05-06 19:10 | 33.46505 | 74.62520 | 16437 ft | 222 kts | 116° |
| 2026-05-06 19:10 | 33.45749 | 74.64138 | 16405 ft | 223 kts | 115° |
| 2026-05-06 19:10 | 33.44981 | 74.65782 | 16419 ft | 228 kts | 116° |
| 2026-05-06 19:11 | 33.44198 | 74.67448 | 16424 ft | 231 kts | 115° |
| 2026-05-06 19:11 | 33.43406 | 74.69138 | 16421 ft | 234 kts | 116° |
| 2026-05-06 19:11 | 33.42612 | 74.70835 | 16417 ft | 233 kts | 115° |
| 2026-05-06 19:11 | 33.41829 | 74.72517 | 16423 ft | 231 kts | 116° |
| 2026-05-06 19:12 | 33.41038 | 74.74202 | 16418 ft | 233 kts | 115° |
| 2026-05-06 19:12 | 33.40244 | 74.75893 | 16420 ft | 233 kts | 115° |
| 2026-05-06 19:12 | 33.39453 | 74.77588 | 16420 ft | 233 kts | 115° |
| 2026-05-06 19:12 | 33.38662 | 74.79282 | 16415 ft | 234 kts | 115° |
| 2026-05-06 19:13 | 33.37851 | 74.80955 | 16415 ft | 232 kts | 116° |
| 2026-05-06 19:13 | 33.37069 | 74.82640 | 16387 ft | 232 kts | 115° |
| 2026-05-06 19:13 | 33.36282 | 74.84338 | 16375 ft | 234 kts | 114° |
| 2026-05-06 19:13 | 33.35496 | 74.86032 | 16390 ft | 234 kts | 116° |
| 2026-05-06 19:14 | 33.34706 | 74.87737 | 16382 ft | 234 kts | 115° |
| 2026-05-06 19:14 | 33.33911 | 74.89432 | 16380 ft | 233 kts | 115° |
| 2026-05-06 19:14 | 33.33138 | 74.91083 | 16388 ft | 229 kts | 115° |
| 2026-05-06 19:14 | 33.32357 | 74.92747 | 16374 ft | 229 kts | 115° |
| 2026-05-06 19:15 | 33.31438 | 74.94299 | 16376 ft | 233 kts | 135° |
| 2026-05-06 19:15 | 33.30142 | 74.95479 | 16383 ft | 235 kts | 142° |
| 2026-05-06 19:15 | 33.28768 | 74.96612 | 16355 ft | 239 kts | 143° |
| 2026-05-06 19:15 | 33.27414 | 74.97726 | 16350 ft | 240 kts | 143° |
| 2026-05-06 19:16 | 33.26009 | 74.98812 | 16352 ft | 241 kts | 146° |
| 2026-05-06 19:16 | 33.24583 | 74.99872 | 16352 ft | 241 kts | 146° |
| 2026-05-06 19:16 | 33.23134 | 75.00943 | 16352 ft | 242 kts | 146° |
| 2026-05-06 19:16 | 33.21704 | 75.01999 | 16353 ft | 242 kts | 146° |
| 2026-05-06 19:17 | 33.20269 | 75.03058 | 16352 ft | 243 kts | 146° |
| 2026-05-06 19:17 | 33.18852 | 75.04109 | 16309 ft | 243 kts | 146° |
| 2026-05-06 19:17 | 33.17423 | 75.05183 | 16314 ft | 243 kts | 146° |
| 2026-05-06 19:17 | 33.15978 | 75.06269 | 16303 ft | 247 kts | 146° |
| 2026-05-06 19:18 | 33.14526 | 75.07331 | 16320 ft | 242 kts | 147° |
| 2026-05-06 19:18 | 33.13079 | 75.08363 | 16325 ft | 242 kts | 144° |
| 2026-05-06 19:18 | 33.11743 | 75.09569 | 16328 ft | 241 kts | 138° |
| 2026-05-06 19:18 | 33.10451 | 75.10847 | 16288 ft | 241 kts | 137° |
| 2026-05-06 19:19 | 33.09165 | 75.12133 | 16288 ft | 242 kts | 137° |
| 2026-05-06 19:19 | 33.07883 | 75.13419 | 16284 ft | 240 kts | 137° |
| 2026-05-06 19:19 | 33.06605 | 75.14697 | 16283 ft | 239 kts | 137° |
| 2026-05-06 19:19 | 33.05327 | 75.15969 | 16284 ft | 239 kts | 137° |
| 2026-05-06 19:20 | 33.04050 | 75.17246 | 16284 ft | 240 kts | 137° |
| 2026-05-06 19:20 | 33.02773 | 75.18532 | 16283 ft | 241 kts | 137° |
| 2026-05-06 19:20 | 33.01496 | 75.19821 | 16286 ft | 240 kts | 137° |
| 2026-05-06 19:20 | 33.00210 | 75.21104 | 16250 ft | 241 kts | 137° |
| 2026-05-06 19:21 | 32.98929 | 75.22393 | 16281 ft | 241 kts | 137° |
| 2026-05-06 19:21 | 32.97663 | 75.23668 | 16287 ft | 242 kts | 137° |
| 2026-05-06 19:21 | 32.96379 | 75.24958 | 16288 ft | 242 kts | 137° |
| 2026-05-06 19:21 | 32.95088 | 75.26256 | 16279 ft | 244 kts | 137° |
| 2026-05-06 19:22 | 32.93792 | 75.27564 | 16282 ft | 244 kts | 137° |
| 2026-05-06 19:22 | 32.92487 | 75.28870 | 16275 ft | 245 kts | 137° |
| 2026-05-06 19:22 | 32.91190 | 75.30178 | 16264 ft | 244 kts | 137° |
| 2026-05-06 19:22 | 32.89889 | 75.31492 | 16118 ft | 246 kts | 137° |
| 2026-05-06 19:23 | 32.88588 | 75.32807 | 16016 ft | 245 kts | 137° |
| 2026-05-06 19:23 | 32.87283 | 75.34123 | 15869 ft | 246 kts | 137° |
| 2026-05-06 19:23 | 32.85976 | 75.35436 | 15784 ft | 246 kts | 137° |
| 2026-05-06 19:23 | 32.84676 | 75.36754 | 15658 ft | 245 kts | 137° |
| 2026-05-06 19:24 | 32.83375 | 75.38066 | 15529 ft | 245 kts | 138° |
| 2026-05-06 19:24 | 32.82082 | 75.39379 | 15344 ft | 244 kts | 136° |
| 2026-05-06 19:24 | 32.80797 | 75.40695 | 15219 ft | 244 kts | 137° |
| 2026-05-06 19:24 | 32.79503 | 75.41994 | 15092 ft | 243 kts | 137° |
| 2026-05-06 19:25 | 32.78215 | 75.43295 | 14962 ft | 243 kts | 137° |
| 2026-05-06 19:25 | 32.76926 | 75.44591 | 14834 ft | 242 kts | 137° |
| 2026-05-06 19:25 | 32.75641 | 75.45882 | 14694 ft | 241 kts | 137° |
| 2026-05-06 19:25 | 32.74361 | 75.47170 | 14488 ft | 240 kts | 140° |
| 2026-05-06 19:26 | 32.73056 | 75.48408 | 14356 ft | 240 kts | 136° |
| 2026-05-06 19:26 | 32.72102 | 75.49988 | 14299 ft | 235 kts | 113° |
| 2026-05-06 19:26 | 32.71409 | 75.51739 | 14237 ft | 234 kts | 111° |
| 2026-05-06 19:26 | 32.70731 | 75.53497 | 14154 ft | 234 kts | 110° |
| 2026-05-06 19:27 | 32.70051 | 75.55248 | 14018 ft | 233 kts | 111° |
| 2026-05-06 19:27 | 32.69370 | 75.56995 | 13893 ft | 234 kts | 112° |
| 2026-05-06 19:27 | 32.68697 | 75.58751 | 13821 ft | 233 kts | 111° |
| 2026-05-06 19:27 | 32.68024 | 75.60493 | 13657 ft | 232 kts | 111° |
| 2026-05-06 19:28 | 32.67350 | 75.62235 | 13539 ft | 233 kts | 111° |
| 2026-05-06 19:28 | 32.66672 | 75.63976 | 13420 ft | 232 kts | 111° |
| 2026-05-06 19:28 | 32.65994 | 75.65718 | 13304 ft | 232 kts | 112° |
| 2026-05-06 19:28 | 32.65324 | 75.67460 | 13152 ft | 232 kts | 111° |
| 2026-05-06 19:29 | 32.64664 | 75.69204 | 13016 ft | 231 kts | 110° |
| 2026-05-06 19:29 | 32.64005 | 75.70946 | 12915 ft | 231 kts | 111° |
| 2026-05-06 19:29 | 32.63340 | 75.72684 | 12792 ft | 232 kts | 111° |
| 2026-05-06 19:29 | 32.62671 | 75.74420 | 12680 ft | 231 kts | 110° |
| 2026-05-06 19:30 | 32.62021 | 75.76128 | 12520 ft | 230 kts | 111° |
| 2026-05-06 19:30 | 32.61369 | 75.77834 | 12486 ft | 223 kts | 112° |
| 2026-05-06 19:30 | 32.60738 | 75.79506 | 12516 ft | 221 kts | 111° |
| 2026-05-06 19:30 | 32.60130 | 75.81173 | 12516 ft | 220 kts | 111° |
| 2026-05-06 19:31 | 32.59526 | 75.82840 | 12508 ft | 219 kts | 112° |
| 2026-05-06 19:31 | 32.58932 | 75.84495 | 12504 ft | 217 kts | 111° |
| 2026-05-06 19:31 | 32.57758 | 75.87778 | 12507 ft | 216 kts | 111° |
| 2026-05-06 19:32 | 32.57167 | 75.89410 | 12505 ft | 215 kts | 111° |
| 2026-05-06 19:32 | 32.56579 | 75.91040 | 12483 ft | 215 kts | 111° |
| 2026-05-06 19:32 | 32.55992 | 75.92665 | 12482 ft | 214 kts | 111° |
| 2026-05-06 19:32 | 32.55410 | 75.94295 | 12519 ft | 215 kts | 111° |
| 2026-05-06 19:33 | 32.54826 | 75.95927 | 12518 ft | 215 kts | 111° |
| 2026-05-06 19:33 | 32.54226 | 75.97554 | 12522 ft | 216 kts | 116° |
| 2026-05-06 19:33 | 32.53230 | 75.98880 | 12515 ft | 217 kts | 141° |
| 2026-05-06 19:33 | 32.52005 | 75.99924 | 12526 ft | 217 kts | 144° |
| 2026-05-06 19:34 | 32.50766 | 76.00955 | 12530 ft | 218 kts | 144° |
| 2026-05-06 19:34 | 32.49510 | 76.01999 | 12519 ft | 222 kts | 144° |
| 2026-05-06 19:34 | 32.48257 | 76.03045 | 12525 ft | 220 kts | 144° |
| 2026-05-06 19:34 | 32.46977 | 76.04038 | 12490 ft | 220 kts | 147° |
| 2026-05-06 19:35 | 32.45665 | 76.04979 | 12489 ft | 220 kts | 148° |
| 2026-05-06 19:35 | 32.44338 | 76.05872 | 12491 ft | 219 kts | 152° |
| 2026-05-06 19:35 | 32.42974 | 76.06683 | 12490 ft | 219 kts | 153° |
| 2026-05-06 19:35 | 32.41608 | 76.07483 | 12542 ft | 219 kts | 153° |
| 2026-05-06 19:36 | 32.40239 | 76.08296 | 12542 ft | 221 kts | 152° |
| 2026-05-06 19:36 | 32.38889 | 76.09166 | 12543 ft | 221 kts | 149° |
| 2026-05-06 19:36 | 32.37599 | 76.10143 | 12513 ft | 219 kts | 144° |
| 2026-05-06 19:36 | 32.36358 | 76.11194 | 12516 ft | 220 kts | 143° |
| 2026-05-06 19:37 | 32.35121 | 76.12262 | 12510 ft | 220 kts | 143° |
| 2026-05-06 19:37 | 32.33888 | 76.13332 | 12465 ft | 219 kts | 143° |
| 2026-05-06 19:37 | 32.32658 | 76.14398 | 12458 ft | 218 kts | 143° |
| 2026-05-06 19:37 | 32.31834 | 76.15114 | 12461 ft | 217 kts | 143° |
| 2026-05-06 19:38 | 32.30230 | 76.16517 | 12451 ft | 216 kts | 143° |
| 2026-05-06 19:38 | 32.29016 | 76.17572 | 12446 ft | 217 kts | 143° |
| 2026-05-06 19:38 | 32.27803 | 76.18630 | 12433 ft | 217 kts | 142° |
| 2026-05-06 19:38 | 32.26587 | 76.19680 | 12430 ft | 216 kts | 143° |
| 2026-05-06 19:39 | 32.25374 | 76.20731 | 12427 ft | 216 kts | 143° |
| 2026-05-06 19:39 | 32.24164 | 76.21781 | 12422 ft | 216 kts | 143° |
| 2026-05-06 19:39 | 32.22956 | 76.22829 | 12422 ft | 215 kts | 143° |
| 2026-05-06 19:39 | 32.21753 | 76.23876 | 12421 ft | 215 kts | 143° |
| 2026-05-06 19:40 | 32.20550 | 76.24922 | 12420 ft | 215 kts | 143° |
| 2026-05-06 19:40 | 32.19347 | 76.25968 | 12423 ft | 215 kts | 143° |
| 2026-05-06 19:40 | 32.18142 | 76.27011 | 12421 ft | 215 kts | 143° |
| 2026-05-06 19:40 | 32.17063 | 76.28211 | 12413 ft | 214 kts | 120° |
| 2026-05-06 19:41 | 32.16666 | 76.29264 | 12416 ft | 212 kts | 108° |
| 2026-05-06 19:41 | 32.16214 | 76.30914 | 12420 ft | 211 kts | 106° |
| 2026-05-06 19:41 | 32.15774 | 76.32573 | 12421 ft | 212 kts | 106° |
| 2026-05-06 19:41 | 32.15334 | 76.34230 | 12423 ft | 212 kts | 106° |
| 2026-05-06 19:42 | 32.14892 | 76.35891 | 12424 ft | 212 kts | 107° |
| 2026-05-06 19:42 | 32.14454 | 76.37554 | 12432 ft | 213 kts | 106° |
| 2026-05-06 19:42 | 32.14018 | 76.39224 | 12441 ft | 213 kts | 106° |
| 2026-05-06 19:42 | 32.13580 | 76.40898 | 12446 ft | 214 kts | 106° |
| 2026-05-06 19:43 | 32.13138 | 76.42578 | 12454 ft | 215 kts | 106° |
| 2026-05-06 19:43 | 32.12694 | 76.44259 | 12459 ft | 215 kts | 106° |
| 2026-05-06 19:43 | 32.12254 | 76.45942 | 12466 ft | 215 kts | 106° |
| 2026-05-06 19:43 | 32.11813 | 76.47625 | 12473 ft | 215 kts | 106° |
| 2026-05-06 19:44 | 32.11372 | 76.49307 | 12479 ft | 215 kts | 105° |
| 2026-05-06 19:44 | 32.10929 | 76.50988 | 12488 ft | 214 kts | 107° |
| 2026-05-06 19:44 | 32.10507 | 76.52666 | 12495 ft | 213 kts | 106° |
| 2026-05-06 19:44 | 32.10098 | 76.54339 | 12502 ft | 212 kts | 106° |
| 2026-05-06 19:45 | 32.09691 | 76.56004 | 12508 ft | 211 kts | 106° |
| 2026-05-06 19:45 | 32.09286 | 76.57667 | 12516 ft | 211 kts | 106° |
| 2026-05-06 19:45 | 32.08880 | 76.59328 | 12521 ft | 211 kts | 106° |
| 2026-05-06 19:45 | 32.08476 | 76.60985 | 12527 ft | 210 kts | 106° |
| 2026-05-06 19:46 | 32.08072 | 76.62644 | 12533 ft | 210 kts | 106° |
| 2026-05-06 19:46 | 32.07668 | 76.64300 | 12542 ft | 210 kts | 106° |
| 2026-05-06 19:46 | 32.07264 | 76.65956 | 12588 ft | 210 kts | 106° |
| 2026-05-06 19:46 | 32.06861 | 76.67611 | 12595 ft | 210 kts | 106° |
| 2026-05-06 19:47 | 32.06458 | 76.69266 | 12594 ft | 210 kts | 106° |
| 2026-05-06 19:47 | 32.06055 | 76.70920 | 12594 ft | 210 kts | 106° |
| 2026-05-06 19:47 | 32.05651 | 76.72575 | 12594 ft | 210 kts | 106° |
| 2026-05-06 19:47 | 32.05248 | 76.74230 | 12594 ft | 210 kts | 106° |
| 2026-05-06 19:48 | 32.04845 | 76.75885 | 12594 ft | 210 kts | 106° |
| 2026-05-06 19:48 | 32.04443 | 76.77538 | 12593 ft | 210 kts | 106° |
| 2026-05-06 19:48 | 32.04040 | 76.79195 | 12594 ft | 210 kts | 106° |
| 2026-05-06 19:48 | 32.03638 | 76.80849 | 12632 ft | 210 kts | 106° |
| 2026-05-06 19:49 | 32.03235 | 76.82504 | 12586 ft | 210 kts | 106° |
| 2026-05-06 19:49 | 32.02832 | 76.84158 | 12587 ft | 210 kts | 106° |
| 2026-05-06 19:49 | 32.02430 | 76.85813 | 12587 ft | 210 kts | 106° |
| 2026-05-06 19:49 | 32.02027 | 76.87470 | 12586 ft | 210 kts | 106° |
| 2026-05-06 19:50 | 32.01639 | 76.89107 | 12585 ft | 211 kts | 106° |
| 2026-05-06 19:50 | 32.01249 | 76.90770 | 12590 ft | 211 kts | 106° |
| 2026-05-06 19:50 | 32.00857 | 76.92435 | 12590 ft | 211 kts | 106° |
| 2026-05-06 19:50 | 32.00464 | 76.94097 | 12626 ft | 211 kts | 106° |
| 2026-05-06 19:51 | 32.00072 | 76.95761 | 12626 ft | 211 kts | 106° |
| 2026-05-06 19:51 | 31.99681 | 76.97427 | 12626 ft | 211 kts | 106° |
| 2026-05-06 19:51 | 31.99290 | 76.99091 | 12628 ft | 211 kts | 106° |
| 2026-05-06 19:51 | 31.98898 | 77.00754 | 12627 ft | 211 kts | 106° |
| 2026-05-06 19:52 | 31.98505 | 77.02418 | 12627 ft | 211 kts | 106° |
| 2026-05-06 19:52 | 31.98115 | 77.04078 | 12631 ft | 211 kts | 106° |
| 2026-05-06 19:52 | 31.97724 | 77.05742 | 12631 ft | 211 kts | 106° |
| 2026-05-06 19:52 | 31.97331 | 77.07410 | 12631 ft | 211 kts | 106° |
| 2026-05-06 19:53 | 31.96915 | 77.09063 | 12667 ft | 210 kts | 113° |
| 2026-05-06 19:53 | 31.96170 | 77.10537 | 12673 ft | 209 kts | 125° |
| 2026-05-06 19:53 | 31.95141 | 77.11804 | 11994 ft | 226 kts | 143° |
| 2026-05-06 19:53 | 31.93722 | 77.12798 | 10919 ft | 246 kts | 155° |
| 2026-05-06 19:54 | 31.92110 | 77.13580 | 9821 ft | 254 kts | 159° |
| 2026-05-06 19:54 | 31.90495 | 77.14364 | 9113 ft | 242 kts | 156° |
| 2026-05-06 19:54 | 31.89013 | 77.15118 | 8528 ft | 224 kts | 158° |
| 2026-05-06 19:54 | 31.87606 | 77.15768 | 7996 ft | 212 kts | 160° |
| 2026-05-06 19:55 | 31.86259 | 77.16369 | 7502 ft | 205 kts | 160° |
| 2026-05-06 19:55 | 31.84958 | 77.16990 | 7090 ft | 196 kts | 157° |
| 2026-05-06 19:55 | 31.83754 | 77.17609 | 6870 ft | 182 kts | 158° |
| 2026-05-06 19:55 | 31.82637 | 77.18075 | 6858 ft | 163 kts | 168° |
| 2026-05-06 19:56 | 31.81555 | 77.18339 | 6910 ft | 154 kts | 170° |
| 2026-05-06 19:56 | 31.80537 | 77.18592 | 6943 ft | 150 kts | 169° |
| 2026-05-06 19:56 | 31.79505 | 77.18843 | 6795 ft | 157 kts | 171° |
| 2026-05-06 19:56 | 31.78394 | 77.19040 | 6634 ft | 161 kts | 173° |
| 2026-05-06 19:57 | 31.77305 | 77.19299 | 6435 ft | 163 kts | 168° |
| 2026-05-06 19:57 | 31.76215 | 77.19607 | 6275 ft | 161 kts | 169° |
| 2026-05-06 19:57 | 31.75131 | 77.19809 | 6201 ft | 153 kts | 176° |
| 2026-05-06 19:57 | 31.74126 | 77.19826 | 6337 ft | 137 kts | 183° |
| 2026-05-06 19:58 | 31.73208 | 77.19783 | 6555 ft | 127 kts | 183° |
| 2026-05-06 19:58 | 31.72365 | 77.19825 | 6720 ft | 112 kts | 154° |
| 2026-05-06 19:58 | 31.71992 | 77.20609 | 6854 ft | 124 kts | 88° |
| 2026-05-06 19:58 | 31.72442 | 77.21448 | 6954 ft | 130 kts | 22° |
| 2026-05-06 19:59 | 31.73428 | 77.21408 | 6456 ft | 167 kts | 344° |
| 2026-05-06 19:59 | 31.74609 | 77.21035 | 5575 ft | 175 kts | 343° |
| 2026-05-06 19:59 | 31.75716 | 77.20591 | 5048 ft | 162 kts | 339° |
| 2026-05-06 19:59 | 31.76765 | 77.20158 | 4567 ft | 153 kts | 340° |
| 2026-05-06 20:00 | 31.77709 | 77.19792 | 4262 ft | 133 kts | 340° |
| 2026-05-06 20:00 | 31.78543 | 77.19484 | 4257 ft | 120 kts | 343° |
| 2026-05-06 20:00 | 31.79335 | 77.19230 | 4283 ft | 115 kts | 342° |
| 2026-05-06 20:00 | 31.80092 | 77.18974 | 4309 ft | 112 kts | 343° |
| 2026-05-06 20:01 | 31.80857 | 77.18746 | 4326 ft | 115 kts | 343° |
| 2026-05-06 20:01 | 31.81625 | 77.18451 | 4313 ft | 118 kts | 337° |
| 2026-05-06 20:01 | 31.82385 | 77.18072 | 4281 ft | 119 kts | 335° |
| 2026-05-06 20:01 | 31.83140 | 77.17705 | 4285 ft | 116 kts | 336° |
| 2026-05-06 20:02 | 31.83874 | 77.17333 | 4284 ft | 115 kts | 333° |
| 2026-05-06 20:02 | 31.84618 | 77.16960 | 4287 ft | 116 kts | 336° |
| 2026-05-06 20:02 | 31.85365 | 77.16604 | 4278 ft | 116 kts | 334° |
| 2026-05-06 20:02 | 31.86108 | 77.16266 | 4340 ft | 113 kts | 337° |
| 2026-05-06 20:03 | 31.86851 | 77.15843 | 3892 ft | 125 kts | 329° |
| 2026-05-06 20:03 | 31.87573 | 77.15490 | 3739 ft | 95 kts | 331° |
| 2026-05-06 20:03 | 31.87972 | 77.15291 | 3750 ft | 33 kts | 338° |
| 2026-05-06 20:03 | 31.88064 | 77.15227 | 3750 ft | 3 kts | 309° |
| 2026-05-06 20:04 | 31.88088 | 77.15195 | 3749 ft | 7 kts | 321° |
| 2026-05-06 20:04 | 31.88114 | 77.15194 | 3755 ft | 2 kts | 60° |
| 2026-05-06 20:04 | 31.88103 | 77.15219 | 3755 ft | 10 kts | 144° |
| 2026-05-06 20:04 | 31.87998 | 77.15281 | 3746 ft | 18 kts | 157° |
| 2026-05-06 20:05 | 31.87889 | 77.15329 | 3748 ft | 16 kts | 162° |
| 2026-05-06 20:05 | 31.87824 | 77.15327 | 3747 ft | 7 kts | 219° |
| 2026-05-06 20:05 | 31.87814 | 77.15308 | 3749 ft | 4 kts | 246° |
| 2026-05-06 20:05 | 31.87808 | 77.15290 | 3749 ft | 4 kts | 251° |
| 2026-05-06 20:06 | 31.87802 | 77.15253 | 3749 ft | 3 kts | 270° |
| 2026-05-06 20:06 | 31.87797 | 77.15228 | 3743 ft | 4 kts | 233° |
| 2026-05-06 20:06 | 31.87779 | 77.15226 | 3741 ft | 0 kts | 120° |
| 2026-05-06 20:06 | 31.87779 | 77.15229 | 3746 ft | 0 kts | 104° |
| 2026-05-06 20:07 | 31.87779 | 77.15233 | 3746 ft | 0 kts | 77° |
| 2026-05-06 20:09 | 31.87782 | 77.15232 | 3746 ft | 0 kts | 77° |